Time;durP1;ratioP1;P1;durP2;ratioP2;P2;SDS_P1;SDS_P2;PMS_P1;PMS_P2;Temp;Humidity;BMP_temperature;BMP_pressure;BME280_temperature;BME280_humidity;BME280_pressure;Samples;Min_cycle;Max_cycle;Signal;HPM_P1;HPM_P2
2020/12/09 00:00:43;;;;;;;;;;;5.40;81.00;;;;;;5093324;28;19918;-78
2020/12/09 00:03:08;;;;;;;;;;;5.40;81.00;;;;;;5092993;28;19923;-78
2020/12/09 00:05:34;;;;;;;;;;;5.40;81.00;;;;;;5111292;28;19918;-78
2020/12/09 00:07:59;;;;;;;;;;;5.40;81.00;;;;;;5076492;28;20326;-78
2020/12/09 00:10:25;;;;;;;;;;;5.40;81.00;;;;;;5113269;28;19924;-80
2020/12/09 00:12:50;;;;;;;;;;;5.40;81.00;;;;;;5093321;28;19915;-80
2020/12/09 00:15:16;;;;;;;;;;;5.40;81.00;;;;;;5111581;28;20341;-80
2020/12/09 00:17:41;;;;;;;;;;;5.40;81.00;;;;;;5092884;28;19935;-80
2020/12/09 00:20:07;;;;;;;;;;;5.40;81.00;;;;;;5111534;28;19961;-80
2020/12/09 00:22:35;;;;;;;;;;;5.40;81.00;;;;;;5093779;28;20399;-80
2020/12/09 00:25:02;;;;;;;;;;;5.40;80.90;;;;;;5080280;28;19945;-80
2020/12/09 00:27:28;;;;;;;;;;;5.30;80.90;;;;;;5115186;28;20003;-80
2020/12/09 00:29:53;;;;;;;;;;;5.30;80.80;;;;;;5097076;28;20010;-80
2020/12/09 00:32:19;;;;;;;;;;;5.40;81.00;;;;;;5115361;28;19947;-80
2020/12/09 00:34:44;;;;;;;;;;;5.40;81.00;;;;;;5114932;28;19915;-80
2020/12/09 00:37:10;;;;;;;;;;;5.40;81.00;;;;;;5115340;28;20380;-80
2020/12/09 00:39:36;;;;;;;;;;;5.40;81.00;;;;;;5079719;28;19951;-80
2020/12/09 00:42:01;;;;;;;;;;;5.30;80.90;;;;;;5115141;28;19920;-80
2020/12/09 00:44:27;;;;;;;;;;;5.30;80.90;;;;;;5079438;28;19919;-80
2020/12/09 00:46:52;;;;;;;;;;;5.30;80.90;;;;;;5079833;28;19916;-80
2020/12/09 00:49:18;;;;;;;;;;;5.30;80.90;;;;;;5079816;28;20237;-80
2020/12/09 00:51:43;;;;;;;;;;;5.30;80.90;;;;;;5114464;28;20022;-80
2020/12/09 00:54:09;;;;;;;;;;;5.30;81.00;;;;;;5096669;28;20437;-80
2020/12/09 00:56:34;;;;;;;;;;;5.30;81.00;;;;;;5114476;28;19916;-80
2020/12/09 00:59:03;;;;;;;;;;;5.20;80.90;;;;;;5115067;28;19916;-80
2020/12/09 01:01:28;;;;;;;;;;;5.30;81.00;;;;;;5114325;28;19923;-80
2020/12/09 01:03:54;;;;;;;;;;;5.20;80.90;;;;;;5096280;28;19908;-80
2020/12/09 01:06:19;;;;;;;;;;;5.30;80.90;;;;;;5114698;28;20399;-80
2020/12/09 01:08:45;;;;;;;;;;;5.30;80.90;;;;;;5095996;28;20140;-80
2020/12/09 01:11:11;;;;;;;;;;;5.30;80.90;;;;;;5110683;27;20303;-80
2020/12/09 01:13:36;;;;;;;;;;;5.30;80.80;;;;;;5099263;27;19915;-80
2020/12/09 01:16:02;;;;;;;;;;;5.30;80.80;;;;;;5108076;28;19931;-80
2020/12/09 01:18:27;;;;;;;;;;;5.30;80.80;;;;;;5103841;27;19998;-80
2020/12/09 01:20:53;;;;;;;;;;;5.30;80.80;;;;;;5134995;27;20322;-80
2020/12/09 01:23:18;;;;;;;;;;;5.30;80.70;;;;;;5099456;27;19919;-80
2020/12/09 01:25:44;;;;;;;;;;;5.30;80.80;;;;;;5116353;27;19965;-80
2020/12/09 01:28:09;;;;;;;;;;;5.30;80.80;;;;;;5116471;27;19920;-80
2020/12/09 01:30:35;;;;;;;;;;;5.30;80.70;;;;;;5134401;27;19916;-80
2020/12/09 01:33:01;;;;;;;;;;;5.30;80.80;;;;;;5116197;27;19961;-80
2020/12/09 01:35:26;;;;;;;;;;;5.30;80.80;;;;;;5114784;27;20019;-80
2020/12/09 01:37:53;;;;;;;;;;;5.30;80.80;;;;;;5116237;27;19954;-81
2020/12/09 01:40:18;;;;;;;;;;;5.30;80.80;;;;;;5134905;27;19911;-81
2020/12/09 01:42:44;;;;;;;;;;;5.30;80.80;;;;;;5134125;27;19927;-80
2020/12/09 01:45:10;;;;;;;;;;;5.30;80.80;;;;;;5134491;27;19970;-80
2020/12/09 01:47:35;;;;;;;;;;;5.30;80.80;;;;;;5132965;27;19908;-80
2020/12/09 01:50:01;;;;;;;;;;;5.40;80.80;;;;;;5115874;27;20369;-80
2020/12/09 01:52:26;;;;;;;;;;;5.30;80.80;;;;;;5115662;27;19912;-80
2020/12/09 01:54:53;;;;;;;;;;;5.30;80.80;;;;;;5133992;27;20318;-80
2020/12/09 01:57:18;;;;;;;;;;;5.30;80.80;;;;;;5098732;27;19926;-80
2020/12/09 01:59:44;;;;;;;;;;;5.30;81.40;;;;;;5133857;27;19908;-80
2020/12/09 02:02:09;;;;;;;;;;;5.30;80.80;;;;;;5130820;27;19920;-80
2020/12/09 02:04:35;;;;;;;;;;;5.30;80.80;;;;;;5113295;28;19916;-80
2020/12/09 02:07:01;;;;;;;;;;;5.30;80.80;;;;;;5113607;28;19908;-80
2020/12/09 02:09:26;;;;;;;;;;;5.30;80.80;;;;;;5112966;28;19958;-80
2020/12/09 02:11:53;;;;;;;;;;;5.30;80.80;;;;;;5110344;28;20007;-80
2020/12/09 02:14:19;;;;;;;;;;;5.30;80.80;;;;;;5112130;28;19916;-80
2020/12/09 02:16:51;;;;;;;;;;;5.30;80.80;;;;;;5129367;27;19941;-80
2020/12/09 02:19:17;;;;;;;;;;;5.30;80.80;;;;;;5098428;27;19974;-80
2020/12/09 02:21:43;;;;;;;;;;;5.30;80.80;;;;;;5114925;27;20364;-80
2020/12/09 02:24:08;;;;;;;;;;;5.30;80.80;;;;;;5133778;27;20006;-80
2020/12/09 02:26:34;;;;;;;;;;;5.30;80.80;;;;;;5114860;27;19911;-80
2020/12/09 02:28:59;;;;;;;;;;;5.20;80.70;;;;;;5115254;27;19916;-80
2020/12/09 02:31:24;;;;;;;;;;;5.20;80.70;;;;;;5133600;27;20429;-81
2020/12/09 02:33:50;;;;;;;;;;;5.20;80.70;;;;;;5114015;27;19915;-80
2020/12/09 02:36:16;;;;;;;;;;;5.20;80.70;;;;;;5094249;28;19927;-80
2020/12/09 02:38:42;;;;;;;;;;;5.20;80.80;;;;;;5112614;28;20369;-80
2020/12/09 02:41:07;;;;;;;;;;;5.20;80.70;;;;;;5113379;28;19919;-80
2020/12/09 02:43:33;;;;;;;;;;;5.10;80.70;;;;;;5112409;28;19916;-80
2020/12/09 02:45:58;;;;;;;;;;;5.10;80.70;;;;;;5112341;28;19912;-80
2020/12/09 02:48:24;;;;;;;;;;;5.10;80.70;;;;;;5112769;28;20003;-81
2020/12/09 02:50:49;;;;;;;;;;;5.10;80.70;;;;;;5093990;28;19922;-81
2020/12/09 02:53:15;;;;;;;;;;;5.10;80.70;;;;;;5083595;27;20386;-81
2020/12/09 02:55:40;;;;;;;;;;;5.00;80.60;;;;;;5132854;27;19915;-81
2020/12/09 02:58:06;;;;;;;;;;;5.00;80.70;;;;;;5097721;27;19972;-81
2020/12/09 03:00:31;;;;;;;;;;;5.00;80.60;;;;;;5114178;27;19911;-81
2020/12/09 03:02:57;;;;;;;;;;;5.00;80.70;;;;;;5132696;27;19919;-81
2020/12/09 03:05:22;;;;;;;;;;;5.00;80.70;;;;;;5132960;27;20419;-81
2020/12/09 03:07:48;;;;;;;;;;;4.90;80.60;;;;;;5114197;27;20346;-81
2020/12/09 03:10:13;;;;;;;;;;;4.90;80.60;;;;;;5132658;27;19972;-81
2020/12/09 03:12:39;;;;;;;;;;;4.90;80.70;;;;;;5097093;27;20253;-81
2020/12/09 03:15:04;;;;;;;;;;;4.90;80.70;;;;;;5114573;27;19960;-81
2020/12/09 03:17:30;;;;;;;;;;;4.80;80.60;;;;;;5113954;27;19915;-81
2020/12/09 03:19:55;;;;;;;;;;;4.80;80.60;;;;;;5132005;27;19915;-81
2020/12/09 03:22:21;;;;;;;;;;;4.80;80.60;;;;;;5097203;27;19915;-81
2020/12/09 03:24:46;;;;;;;;;;;4.70;80.50;;;;;;5113808;27;20262;-81
2020/12/09 03:27:12;;;;;;;;;;;4.70;80.50;;;;;;5132552;27;20361;-81
2020/12/09 03:29:37;;;;;;;;;;;4.70;80.50;;;;;;5113847;27;19922;-81
2020/12/09 03:32:03;;;;;;;;;;;4.70;80.50;;;;;;5110678;27;19951;-81
2020/12/09 03:34:28;;;;;;;;;;;4.60;80.50;;;;;;5110378;28;20284;-81
2020/12/09 03:36:54;;;;;;;;;;;4.70;80.50;;;;;;5111895;28;19908;-81
2020/12/09 03:39:19;;;;;;;;;;;4.60;80.40;;;;;;5111973;28;19920;-81
2020/12/09 03:41:45;;;;;;;;;;;4.60;80.40;;;;;;5111461;28;19922;-81
2020/12/09 03:44:11;;;;;;;;;;;4.60;80.50;;;;;;5112070;28;20328;-81
2020/12/09 03:46:36;;;;;;;;;;;4.50;80.40;;;;;;5110028;28;19908;-81
2020/12/09 03:49:02;;;;;;;;;;;4.50;80.40;;;;;;5111688;28;19912;-81
2020/12/09 03:51:27;;;;;;;;;;;4.40;80.30;;;;;;5113173;27;19965;-81
2020/12/09 03:53:53;;;;;;;;;;;4.40;80.40;;;;;;5113412;28;19923;-81
2020/12/09 03:56:18;;;;;;;;;;;4.40;80.40;;;;;;5113494;27;19908;-81
2020/12/09 03:58:44;;;;;;;;;;;4.40;80.30;;;;;;5131586;28;19915;-81
2020/12/09 04:01:09;;;;;;;;;;;4.40;80.30;;;;;;5113656;28;20076;-81
2020/12/09 04:03:35;;;;;;;;;;;4.30;80.20;;;;;;5113286;28;20000;-81
2020/12/09 04:06:01;;;;;;;;;;;4.30;80.30;;;;;;5096629;28;20325;-81
2020/12/09 04:08:26;;;;;;;;;;;4.30;80.20;;;;;;5131752;28;19934;-81
2020/12/09 04:10:52;;;;;;;;;;;4.30;80.20;;;;;;5109695;28;20095;-81
2020/12/09 04:13:17;;;;;;;;;;;4.20;80.20;;;;;;5111518;28;19912;-81
2020/12/09 04:15:43;;;;;;;;;;;4.20;80.20;;;;;;5092908;28;19952;-81
2020/12/09 04:18:08;;;;;;;;;;;4.20;80.20;;;;;;5111455;28;19947;-81
2020/12/09 04:20:33;;;;;;;;;;;4.10;80.10;;;;;;5111128;28;20336;-81
2020/12/09 04:22:59;;;;;;;;;;;4.10;80.10;;;;;;5111152;28;19927;-81
2020/12/09 04:25:25;;;;;;;;;;;4.10;80.10;;;;;;5111541;28;19922;-81
2020/12/09 04:27:50;;;;;;;;;;;4.10;80.20;;;;;;5075843;28;19920;-81
2020/12/09 04:30:16;;;;;;;;;;;4.00;80.10;;;;;;5092967;28;19911;-81
2020/12/09 04:32:41;;;;;;;;;;;4.00;80.20;;;;;;5092545;28;19946;-81
2020/12/09 04:35:07;;;;;;;;;;;4.00;80.20;;;;;;5111192;28;19947;-81
2020/12/09 04:37:32;;;;;;;;;;;4.00;80.20;;;;;;5092010;28;19911;-81
2020/12/09 04:39:58;;;;;;;;;;;4.00;80.20;;;;;;5092650;28;19922;-81
2020/12/09 04:42:24;;;;;;;;;;;4.00;80.20;;;;;;5092883;28;19977;-81
2020/12/09 04:44:51;;;;;;;;;;;3.90;80.10;;;;;;5075728;28;19930;-81
2020/12/09 04:47:18;;;;;;;;;;;3.90;80.10;;;;;;5111160;28;19911;-81
2020/12/09 04:49:46;;;;;;;;;;;3.90;80.20;;;;;;5090685;28;20368;-80
2020/12/09 04:52:19;;;;;;;;;;;3.90;80.20;;;;;;5091459;28;20380;-81
2020/12/09 04:54:46;;;;;;;;;;;3.90;80.20;;;;;;5093247;28;19908;-81
2020/12/09 04:57:11;;;;;;;;;;;3.90;80.20;;;;;;5107334;28;19923;-81
2020/12/09 04:59:41;;;;;;;;;;;3.80;80.20;;;;;;5091753;28;19908;-80
2020/12/09 05:02:10;;;;;;;;;;;3.80;80.20;;;;;;5091426;28;20407;-80
2020/12/09 05:04:36;;;;;;;;;;;3.80;80.20;;;;;;5093064;28;19922;-80
2020/12/09 05:07:05;;;;;;;;;;;3.80;80.20;;;;;;5112117;28;19907;-80
2020/12/09 05:09:34;;;;;;;;;;;3.80;80.20;;;;;;5097686;22;20022;-78
2020/12/09 05:12:03;;;;;;;;;;;3.80;80.20;;;;;;5075142;28;20043;-78
2020/12/09 05:14:29;;;;;;;;;;;3.80;80.20;;;;;;5075034;28;19909;-78
2020/12/09 05:16:57;;;;;;;;;;;3.80;80.20;;;;;;5056829;28;19916;-78
2020/12/09 05:19:23;;;;;;;;;;;3.80;80.20;;;;;;5056744;28;19908;-78
2020/12/09 05:21:49;;;;;;;;;;;3.80;80.30;;;;;;5074528;28;19970;-78
2020/12/09 05:24:18;;;;;;;;;;;3.70;80.20;;;;;;5074662;28;19935;-77
2020/12/09 05:26:43;;;;;;;;;;;3.80;80.30;;;;;;5072788;28;19920;-77
2020/12/09 05:29:13;;;;;;;;;;;3.70;80.20;;;;;;5073512;28;19958;-78
2020/12/09 05:31:40;;;;;;;;;;;3.70;80.20;;;;;;5089564;28;19980;-77
2020/12/09 05:34:17;;;;;;;;;;;3.70;80.20;;;;;;5074604;28;20270;-78
2020/12/09 05:36:46;;;;;;;;;;;3.70;80.20;;;;;;5074300;28;19909;-77
2020/12/09 05:39:12;;;;;;;;;;;3.70;80.20;;;;;;5074645;28;19909;-78
2020/12/09 05:41:37;;;;;;;;;;;3.70;80.20;;;;;;5056158;28;19924;-78
2020/12/09 05:44:03;;;;;;;;;;;3.70;80.30;;;;;;5056393;28;20352;-77
2020/12/09 05:46:29;;;;;;;;;;;3.70;80.30;;;;;;5056601;28;19912;-78
2020/12/09 05:48:54;;;;;;;;;;;3.70;80.30;;;;;;5073610;28;19908;-78
2020/12/09 05:51:20;;;;;;;;;;;3.70;80.30;;;;;;5039755;28;19916;-78
2020/12/09 05:53:47;;;;;;;;;;;3.70;80.30;;;;;;5073958;28;19912;-78
2020/12/09 05:56:21;;;;;;;;;;;3.70;80.30;;;;;;5074039;28;19923;-78
2020/12/09 05:58:47;;;;;;;;;;;3.70;80.30;;;;;;5074878;28;20382;-78
2020/12/09 06:01:12;;;;;;;;;;;3.70;80.30;;;;;;5089884;28;19912;-78
2020/12/09 06:03:42;;;;;;;;;;;3.70;80.30;;;;;;5073533;28;19942;-78
2020/12/09 06:06:11;;;;;;;;;;;3.70;80.20;;;;;;5056196;28;20349;-78
2020/12/09 06:08:37;;;;;;;;;;;3.60;80.10;;;;;;5055909;28;19916;-78
2020/12/09 06:11:03;;;;;;;;;;;3.60;80.70;;;;;;5055680;28;19931;-78
2020/12/09 06:13:35;;;;;;;;;;;3.60;80.10;;;;;;5072380;28;19921;-78
2020/12/09 06:16:02;;;;;;;;;;;3.60;80.10;;;;;;5089453;28;19912;-78
2020/12/09 06:18:29;;;;;;;;;;;3.60;80.10;;;;;;5073776;28;19915;-78
2020/12/09 06:20:54;;;;;;;;;;;3.60;80.80;;;;;;5072768;28;19912;-78
2020/12/09 06:23:20;;;;;;;;;;;3.60;80.10;;;;;;5052464;28;19916;-78
2020/12/09 06:25:46;;;;;;;;;;;3.60;80.10;;;;;;5089651;28;19919;-77
2020/12/09 06:28:14;;;;;;;;;;;3.60;80.10;;;;;;5056148;28;19919;-78
2020/12/09 06:30:39;;;;;;;;;;;3.60;80.10;;;;;;5073988;28;19917;-78
2020/12/09 06:33:07;;;;;;;;;;;3.60;80.10;;;;;;5073532;28;21576;-78
2020/12/09 06:35:32;;;;;;;;;;;3.60;80.10;;;;;;5073922;28;19908;-77
2020/12/09 06:38:07;;;;;;;;;;;3.60;80.10;;;;;;5073855;28;19912;-77
2020/12/09 06:40:53;;;;;;;;;;;3.60;80.10;;;;;;5055740;28;19913;-78
2020/12/09 06:43:18;;;;;;;;;;;3.50;80.10;;;;;;5048880;28;20286;-78
2020/12/09 06:45:44;;;;;;;;;;;3.60;80.10;;;;;;5089786;28;19918;-78
2020/12/09 06:48:10;;;;;;;;;;;3.60;80.10;;;;;;5074165;28;19916;-78
2020/12/09 06:50:36;;;;;;;;;;;3.60;80.10;;;;;;5073990;28;19915;-78
2020/12/09 06:53:15;;;;;;;;;;;3.50;80.10;;;;;;5073990;28;19913;-78
2020/12/09 06:55:41;;;;;;;;;;;3.50;80.10;;;;;;5073740;28;19956;-78
2020/12/09 06:58:26;;;;;;;;;;;3.50;80.10;;;;;;5055979;28;20377;-78
2020/12/09 07:01:03;;;;;;;;;;;3.50;80.10;;;;;;5070047;28;19932;-78
2020/12/09 07:03:30;;;;;;;;;;;3.50;80.10;;;;;;5073649;28;19924;-78
2020/12/09 07:05:56;;;;;;;;;;;3.50;80.00;;;;;;5073211;28;19909;-78
2020/12/09 07:08:21;;;;;;;;;;;3.50;80.10;;;;;;5055806;28;19917;-78
2020/12/09 07:10:47;;;;;;;;;;;3.50;80.10;;;;;;5055388;28;19927;-78
2020/12/09 07:13:14;;;;;;;;;;;3.50;80.00;;;;;;5073557;28;19924;-78
2020/12/09 07:15:41;;;;;;;;;;;3.40;80.00;;;;;;5072179;28;19909;-78
2020/12/09 07:18:07;;;;;;;;;;;3.50;80.10;;;;;;5073351;28;19908;-78
2020/12/09 07:20:34;;;;;;;;;;;3.40;80.00;;;;;;5073546;28;19909;-78
2020/12/09 07:23:00;;;;;;;;;;;3.40;80.00;;;;;;5055294;28;19916;-78
2020/12/09 07:25:25;;;;;;;;;;;3.40;80.00;;;;;;5055486;28;20406;-78
2020/12/09 07:27:51;;;;;;;;;;;3.40;80.00;;;;;;5072271;28;19912;-78
2020/12/09 07:30:18;;;;;;;;;;;3.40;80.00;;;;;;5054906;28;19917;-78
2020/12/09 07:32:45;;;;;;;;;;;3.40;80.00;;;;;;5054393;28;20284;-78
2020/12/09 07:35:11;;;;;;;;;;;3.40;80.00;;;;;;5050755;28;20389;-79
2020/12/09 07:37:39;;;;;;;;;;;3.40;80.10;;;;;;5051875;28;19944;-80
2020/12/09 07:40:15;;;;;;;;;;;3.40;80.10;;;;;;5053469;28;19978;-78
2020/12/09 07:42:41;;;;;;;;;;;3.40;80.00;;;;;;5065261;28;19928;-79
2020/12/09 07:45:10;;;;;;;;;;;3.40;80.00;;;;;;5054887;28;19912;-79
2020/12/09 07:47:36;;;;;;;;;;;3.40;80.00;;;;;;5054954;28;19958;-79
2020/12/09 07:50:05;;;;;;;;;;;3.40;80.10;;;;;;5072352;28;19912;-79
2020/12/09 07:52:40;;;;;;;;;;;3.40;80.00;;;;;;5069706;28;19967;-78
2020/12/09 07:55:13;;;;;;;;;;;3.40;80.00;;;;;;5072166;28;19924;-79
2020/12/09 07:57:40;;;;;;;;;;;3.40;80.00;;;;;;5054204;28;19915;-79
2020/12/09 08:00:10;;;;;;;;;;;3.40;80.00;;;;;;5071644;28;19913;-78
2020/12/09 08:02:36;;;;;;;;;;;3.40;80.10;;;;;;5056903;28;19916;-79
2020/12/09 08:05:13;;;;;;;;;;;3.40;80.00;;;;;;5066648;28;20003;-79
2020/12/09 08:07:50;;;;;;;;;;;3.40;80.00;;;;;;5068367;28;20385;-78
2020/12/09 08:10:19;;;;;;;;;;;3.40;80.00;;;;;;5054731;28;19928;-79
2020/12/09 08:12:45;;;;;;;;;;;3.40;80.00;;;;;;5072493;28;19912;-79
2020/12/09 08:15:10;;;;;;;;;;;3.40;80.10;;;;;;5088098;28;20540;-79
2020/12/09 08:17:36;;;;;;;;;;;3.50;80.10;;;;;;5071407;28;19919;-79
2020/12/09 08:20:06;;;;;;;;;;;3.40;80.00;;;;;;5088154;28;19917;-79
2020/12/09 08:22:32;;;;;;;;;;;3.40;80.00;;;;;;5072696;28;19923;-79
2020/12/09 08:25:04;;;;;;;;;;;3.50;80.10;;;;;;5088355;28;19950;-78
2020/12/09 08:27:37;;;;;;;;;;;3.40;80.00;;;;;;5052775;28;20727;-79
2020/12/09 08:30:05;;;;;;;;;;;3.40;80.00;;;;;;5034799;28;20278;-79
2020/12/09 08:32:31;;;;;;;;;;;3.40;80.00;;;;;;5053252;28;19995;-79
2020/12/09 08:35:09;;;;;;;;;;;3.40;80.00;;;;;;5055959;28;19971;-79
2020/12/09 08:37:42;;;;;;;;;;;3.50;80.10;;;;;;5035062;28;19948;-79
2020/12/09 08:40:07;;;;;;;;;;;3.40;80.00;;;;;;5053131;28;20397;-79
2020/12/09 08:42:33;;;;;;;;;;;3.40;80.00;;;;;;5034905;28;19917;-79
2020/12/09 08:44:58;;;;;;;;;;;3.40;80.00;;;;;;5054844;28;19913;-79
2020/12/09 08:47:24;;;;;;;;;;;3.40;80.00;;;;;;5070690;28;19912;-79
2020/12/09 08:49:49;;;;;;;;;;;3.40;80.10;;;;;;5041696;28;20003;-79
2020/12/09 08:52:15;;;;;;;;;;;3.40;80.10;;;;;;5058582;28;20357;-78
2020/12/09 08:54:40;;;;;;;;;;;3.40;80.10;;;;;;5058762;28;19920;-79
2020/12/09 08:57:06;;;;;;;;;;;3.40;80.10;;;;;;5058265;28;19913;-79
2020/12/09 08:59:31;;;;;;;;;;;3.40;80.10;;;;;;5058602;28;19966;-79
2020/12/09 09:01:57;;;;;;;;;;;3.40;80.10;;;;;;5041331;28;19955;-79
2020/12/09 09:04:30;;;;;;;;;;;3.40;80.10;;;;;;5076331;28;19916;-79
2020/12/09 09:06:55;;;;;;;;;;;3.40;80.10;;;;;;5074770;28;19913;-79
2020/12/09 09:09:21;;;;;;;;;;;3.40;80.10;;;;;;5058203;28;20066;-79
2020/12/09 09:11:46;;;;;;;;;;;3.40;80.10;;;;;;5075499;28;20298;-79
2020/12/09 09:14:12;;;;;;;;;;;3.40;80.10;;;;;;5075920;28;19921;-79
2020/12/09 09:16:37;;;;;;;;;;;3.50;80.10;;;;;;5058329;28;19920;-79
2020/12/09 09:19:03;;;;;;;;;;;3.40;80.10;;;;;;5057825;28;19913;-79
2020/12/09 09:21:32;;;;;;;;;;;3.40;80.10;;;;;;5058160;28;19912;-79
2020/12/09 09:23:57;;;;;;;;;;;3.50;80.10;;;;;;5057949;28;19951;-79
2020/12/09 09:26:23;;;;;;;;;;;3.40;80.00;;;;;;5041383;28;19951;-79
2020/12/09 09:28:49;;;;;;;;;;;3.50;80.10;;;;;;5057732;28;19919;-79
2020/12/09 09:31:14;;;;;;;;;;;3.50;80.10;;;;;;5041248;28;19958;-79
2020/12/09 09:33:39;;;;;;;;;;;3.50;80.10;;;;;;5057416;28;19912;-79
2020/12/09 09:36:05;;;;;;;;;;;3.50;80.10;;;;;;5074919;28;19916;-79
2020/12/09 09:38:30;;;;;;;;;;;3.50;80.10;;;;;;5041219;28;20274;-79
2020/12/09 09:40:56;;;;;;;;;;;3.50;80.00;;;;;;5057634;28;20376;-79
2020/12/09 09:43:21;;;;;;;;;;;3.50;80.00;;;;;;5057258;28;19920;-79
2020/12/09 09:45:49;;;;;;;;;;;3.60;80.10;;;;;;5040530;28;19913;-79
2020/12/09 09:48:14;;;;;;;;;;;3.50;80.00;;;;;;5057822;28;19913;-79
2020/12/09 09:50:40;;;;;;;;;;;3.60;80.10;;;;;;5075539;28;20278;-79
2020/12/09 09:53:05;;;;;;;;;;;3.60;80.00;;;;;;5057192;28;19916;-78
2020/12/09 09:55:31;;;;;;;;;;;3.60;80.00;;;;;;5055940;28;19923;-79
2020/12/09 09:57:56;;;;;;;;;;;3.60;80.00;;;;;;5040241;28;19913;-78
2020/12/09 10:00:22;;;;;;;;;;;3.60;80.00;;;;;;5037036;28;20322;-79
2020/12/09 10:02:47;;;;;;;;;;;3.60;80.00;;;;;;5051749;28;19960;-79
2020/12/09 10:05:13;;;;;;;;;;;3.60;79.90;;;;;;5065732;28;19919;-79
2020/12/09 10:07:38;;;;;;;;;;;3.60;79.90;;;;;;5070559;28;19920;-79
2020/12/09 10:10:04;;;;;;;;;;;3.60;79.90;;;;;;5054545;28;20278;-79
2020/12/09 10:12:31;;;;;;;;;;;3.60;80.00;;;;;;5055008;28;20345;-79
2020/12/09 10:14:56;;;;;;;;;;;3.60;79.90;;;;;;5070038;28;19920;-79
2020/12/09 10:17:22;;;;;;;;;;;3.60;79.90;;;;;;5036849;28;19917;-79
2020/12/09 10:19:47;;;;;;;;;;;3.60;79.90;;;;;;5041178;28;19917;-79
2020/12/09 10:22:13;;;;;;;;;;;3.60;79.90;;;;;;5038485;28;19917;-80
2020/12/09 10:24:39;;;;;;;;;;;3.60;79.90;;;;;;5074152;28;19920;-80
2020/12/09 10:27:04;;;;;;;;;;;3.60;80.00;;;;;;5056267;28;19939;-81
2020/12/09 10:29:30;;;;;;;;;;;3.60;80.00;;;;;;5056497;28;20374;-80
2020/12/09 10:31:55;;;;;;;;;;;3.70;80.00;;;;;;5039712;28;19912;-80
2020/12/09 10:34:21;;;;;;;;;;;3.70;80.00;;;;;;5074175;28;19951;-80
2020/12/09 10:36:51;;;;;;;;;;;3.70;80.10;;;;;;5056244;28;19913;-80
2020/12/09 10:39:18;;;;;;;;;;;3.70;80.10;;;;;;5071479;28;19922;-83
2020/12/09 10:41:44;;;;;;;;;;;3.70;80.10;;;;;;5065211;28;19963;-82
2020/12/09 10:44:10;;;;;;;;;;;3.70;80.10;;;;;;5068521;28;19912;-83
2020/12/09 10:46:36;;;;;;;;;;;3.70;80.10;;;;;;5055181;28;19908;-82
2020/12/09 10:49:03;;;;;;;;;;;3.70;80.00;;;;;;5069953;28;19923;-83
2020/12/09 10:51:29;;;;;;;;;;;3.70;80.00;;;;;;5055494;28;20346;-83
2020/12/09 10:53:55;;;;;;;;;;;3.80;80.00;;;;;;5071567;28;19935;-83
2020/12/09 10:56:27;;;;;;;;;;;3.80;80.00;;;;;;5038500;28;19958;-82
2020/12/09 10:58:53;;;;;;;;;;;3.80;80.00;;;;;;5071322;28;19916;-83
2020/12/09 11:01:19;;;;;;;;;;;3.80;80.00;;;;;;5055530;28;19916;-83
2020/12/09 11:03:45;;;;;;;;;;;3.80;80.10;;;;;;5072664;28;19920;-82
2020/12/09 11:06:11;;;;;;;;;;;3.90;80.10;;;;;;5068366;28;19916;-83
2020/12/09 11:08:36;;;;;;;;;;;3.90;80.10;;;;;;5054977;28;19962;-83
2020/12/09 11:11:02;;;;;;;;;;;3.90;80.10;;;;;;5082936;22;19970;-82
2020/12/09 11:13:27;;;;;;;;;;;3.90;80.00;;;;;;5073817;28;19912;-81
2020/12/09 11:15:53;;;;;;;;;;;4.00;80.00;;;;;;5074353;28;19923;-81
2020/12/09 11:18:18;;;;;;;;;;;4.00;80.00;;;;;;5083064;28;19916;-81
2020/12/09 11:20:44;;;;;;;;;;;4.00;79.90;;;;;;5087749;28;19986;-81
2020/12/09 11:23:10;;;;;;;;;;;4.00;79.90;;;;;;5089227;28;19981;-81
2020/12/09 11:25:40;;;;;;;;;;;4.00;79.90;;;;;;5092085;28;20365;-81
2020/12/09 11:28:05;;;;;;;;;;;4.10;80.00;;;;;;5093727;28;19916;-81
2020/12/09 11:30:31;;;;;;;;;;;4.10;79.90;;;;;;5092622;28;19919;-81
2020/12/09 11:32:56;;;;;;;;;;;4.10;79.90;;;;;;5093174;28;19914;-81
2020/12/09 11:35:22;;;;;;;;;;;4.10;79.90;;;;;;5091533;28;20304;-81
2020/12/09 11:37:47;;;;;;;;;;;4.10;79.90;;;;;;5073569;28;19935;-81
2020/12/09 11:40:13;;;;;;;;;;;4.20;79.90;;;;;;5074650;28;19938;-81
2020/12/09 11:42:39;;;;;;;;;;;4.20;79.90;;;;;;5092835;28;20051;-81
2020/12/09 11:45:05;;;;;;;;;;;4.20;79.90;;;;;;5107759;28;19998;-81
2020/12/09 11:47:31;;;;;;;;;;;4.30;80.00;;;;;;5092675;28;19908;-81
2020/12/09 11:49:56;;;;;;;;;;;4.30;79.90;;;;;;5092526;28;19918;-81
2020/12/09 11:52:22;;;;;;;;;;;4.30;80.00;;;;;;5092735;28;19916;-81
2020/12/09 11:54:47;;;;;;;;;;;4.30;79.90;;;;;;5092792;28;20410;-81
2020/12/09 11:57:13;;;;;;;;;;;4.40;80.00;;;;;;5092869;28;19927;-81
2020/12/09 11:59:39;;;;;;;;;;;4.40;80.00;;;;;;5074610;28;19963;-81
2020/12/09 12:02:04;;;;;;;;;;;4.40;79.90;;;;;;5092352;28;19916;-81
2020/12/09 12:04:30;;;;;;;;;;;4.40;80.40;;;;;;5092763;28;19912;-81
2020/12/09 12:06:55;;;;;;;;;;;4.50;79.90;;;;;;5074380;28;19955;-81
2020/12/09 12:09:21;;;;;;;;;;;4.50;79.90;;;;;;5091161;28;20379;-81
2020/12/09 12:11:46;;;;;;;;;;;4.60;79.90;;;;;;5091395;28;19912;-81
2020/12/09 12:14:12;;;;;;;;;;;4.60;79.80;;;;;;5073848;28;19916;-81
2020/12/09 12:16:37;;;;;;;;;;;4.60;79.70;;;;;;5074155;28;19941;-82
2020/12/09 12:19:04;;;;;;;;;;;4.60;79.70;;;;;;5092822;28;19965;-81
2020/12/09 12:21:29;;;;;;;;;;;4.70;79.70;;;;;;5095217;28;19912;-81
2020/12/09 12:23:55;;;;;;;;;;;4.70;79.70;;;;;;5096007;28;19913;-81
2020/12/09 12:26:21;;;;;;;;;;;4.70;79.60;;;;;;5095087;28;19912;-81
2020/12/09 12:28:46;;;;;;;;;;;4.70;79.60;;;;;;5078040;28;20377;-81
2020/12/09 12:31:13;;;;;;;;;;;4.70;79.60;;;;;;5095877;28;19916;-81
2020/12/09 12:33:39;;;;;;;;;;;4.70;79.50;;;;;;5095214;28;20341;-81
2020/12/09 12:36:05;;;;;;;;;;;4.70;79.50;;;;;;5095895;28;19908;-81
2020/12/09 12:38:30;;;;;;;;;;;4.70;79.50;;;;;;5096275;28;20335;-81
2020/12/09 12:40:56;;;;;;;;;;;4.80;79.50;;;;;;5096243;28;19923;-81
2020/12/09 12:43:21;;;;;;;;;;;4.80;79.40;;;;;;5096039;28;19916;-81
2020/12/09 12:45:47;;;;;;;;;;;4.80;79.40;;;;;;5094952;28;19919;-81
2020/12/09 12:48:12;;;;;;;;;;;4.80;79.40;;;;;;5095719;28;20032;-81
2020/12/09 12:50:38;;;;;;;;;;;4.90;79.40;;;;;;5094701;28;19935;-81
2020/12/09 12:53:04;;;;;;;;;;;4.90;79.40;;;;;;5077519;28;19916;-81
2020/12/09 12:55:29;;;;;;;;;;;4.90;79.40;;;;;;5095878;28;19920;-81
2020/12/09 12:57:55;;;;;;;;;;;4.90;79.30;;;;;;5094346;28;19962;-81
2020/12/09 13:00:20;;;;;;;;;;;4.90;79.30;;;;;;5095743;28;20003;-81
2020/12/09 13:02:46;;;;;;;;;;;4.90;79.30;;;;;;5077287;28;19923;-81
2020/12/09 13:05:11;;;;;;;;;;;5.00;79.30;;;;;;5094045;28;19937;-81
2020/12/09 13:07:37;;;;;;;;;;;5.00;79.20;;;;;;5095530;28;19958;-81
2020/12/09 13:10:03;;;;;;;;;;;5.00;79.20;;;;;;5095128;28;19932;-81
2020/12/09 13:12:28;;;;;;;;;;;5.00;79.10;;;;;;5094040;28;19908;-81
2020/12/09 13:14:54;;;;;;;;;;;5.00;79.10;;;;;;5093669;28;19908;-81
2020/12/09 13:17:19;;;;;;;;;;;5.00;79.00;;;;;;5095510;28;19915;-81
2020/12/09 13:19:45;;;;;;;;;;;5.00;79.00;;;;;;5095418;28;19950;-81
2020/12/09 13:22:11;;;;;;;;;;;5.10;79.00;;;;;;5093650;28;19912;-81
2020/12/09 13:24:37;;;;;;;;;;;5.10;79.00;;;;;;5095393;28;20385;-81
2020/12/09 13:27:02;;;;;;;;;;;5.10;78.90;;;;;;5093837;28;19922;-81
2020/12/09 13:29:28;;;;;;;;;;;5.10;78.90;;;;;;5094997;28;19912;-81
2020/12/09 13:31:53;;;;;;;;;;;5.20;78.90;;;;;;5093764;28;20420;-81
2020/12/09 13:34:19;;;;;;;;;;;5.20;78.90;;;;;;5095141;28;19913;-81
2020/12/09 13:36:44;;;;;;;;;;;5.20;78.80;;;;;;5093873;28;19943;-81
2020/12/09 13:39:10;;;;;;;;;;;5.20;78.80;;;;;;5076581;28;20411;-81
2020/12/09 13:41:36;;;;;;;;;;;5.20;78.70;;;;;;5094983;28;19969;-81
2020/12/09 13:44:01;;;;;;;;;;;5.30;78.80;;;;;;5093380;28;19919;-81
2020/12/09 13:46:27;;;;;;;;;;;5.30;78.70;;;;;;5093531;28;19908;-81
2020/12/09 13:48:53;;;;;;;;;;;5.30;78.70;;;;;;5093411;28;19920;-81
2020/12/09 13:51:18;;;;;;;;;;;5.30;78.60;;;;;;5093306;28;20003;-81
2020/12/09 13:53:44;;;;;;;;;;;5.40;78.60;;;;;;5094838;28;20418;-81
2020/12/09 13:56:10;;;;;;;;;;;5.30;78.60;;;;;;5092988;28;19931;-81
2020/12/09 13:58:35;;;;;;;;;;;5.40;78.60;;;;;;5094776;28;19912;-81
2020/12/09 14:01:01;;;;;;;;;;;5.40;78.60;;;;;;5094432;28;20273;-81
2020/12/09 14:03:26;;;;;;;;;;;5.40;78.50;;;;;;5094565;28;19912;-81
2020/12/09 14:05:52;;;;;;;;;;;5.40;78.40;;;;;;5094400;28;19908;-81
2020/12/09 14:08:18;;;;;;;;;;;5.40;78.50;;;;;;5076079;28;20021;-81
2020/12/09 14:10:44;;;;;;;;;;;5.40;78.50;;;;;;5076157;28;20393;-81
2020/12/09 14:13:09;;;;;;;;;;;5.50;78.50;;;;;;5092614;28;19955;-81
2020/12/09 14:15:35;;;;;;;;;;;5.40;78.40;;;;;;5093258;28;19989;-81
2020/12/09 14:18:01;;;;;;;;;;;5.50;78.50;;;;;;5093968;28;19908;-81
2020/12/09 14:20:27;;;;;;;;;;;5.50;78.50;;;;;;5093886;28;19915;-81
2020/12/09 14:22:52;;;;;;;;;;;5.50;79.10;;;;;;5074154;28;19916;-81
2020/12/09 14:25:19;;;;;;;;;;;5.50;78.50;;;;;;5059380;28;19952;-80